Time;durP1;ratioP1;P1;durP2;ratioP2;P2;SDS_P1;SDS_P2;PMS_P1;PMS_P2;Temp;Humidity;BMP_temperature;BMP_pressure;BME280_temperature;BME280_humidity;BME280_pressure;Samples;Min_cycle;Max_cycle;Signal;HPM_P1;HPM_P2
2024/03/31 00:01:05;;;;;;;51.65;10.10;;;;;;;;;;4998591;28;20050;-82
2024/03/31 00:03:31;;;;;;;40.85;8.85;;;;;;;;;;5006449;28;20066;-82
2024/03/31 00:05:58;;;;;;;54.28;8.88;;;;;;;;;;4998947;28;20046;-82
2024/03/31 00:08:24;;;;;;;52.10;11.18;;;;;;;;;;5015906;28;20054;-82
2024/03/31 00:10:57;;;;;;;55.63;11.00;;;;;;;;;;5020078;28;20427;-82
2024/03/31 00:13:23;;;;;;;52.45;10.88;;;;;;;;;;5002212;28;20046;-82
2024/03/31 00:15:50;;;;;;;45.33;9.02;;;;;;;;;;5000262;28;20061;-82
2024/03/31 00:18:16;;;;;;;64.40;14.80;;;;;;;;;;5015826;28;20086;-82
2024/03/31 00:20:42;;;;;;;54.95;13.05;;;;;;;;;;5014946;28;20049;-83
2024/03/31 00:23:09;;;;;;;75.40;18.50;;;;;;;;;;5000580;28;20053;-82
2024/03/31 00:25:35;;;;;;;67.93;18.25;;;;;;;;;;5001187;28;20501;-82
2024/03/31 00:28:01;;;;;;;63.50;17.77;;;;;;;;;;5018570;28;20056;-83
2024/03/31 00:30:27;;;;;;;64.60;16.55;;;;;;;;;;5014614;28;20056;-83
2024/03/31 00:32:54;;;;;;;65.80;16.15;;;;;;;;;;5006698;28;20084;-83
2024/03/31 00:35:20;;;;;;;60.67;15.52;;;;;;;;;;5022631;28;20081;-83
2024/03/31 00:37:46;;;;;;;57.42;12.95;;;;;;;;;;5006158;28;20073;-82
2024/03/31 00:40:12;;;;;;;61.00;12.18;;;;;;;;;;5023325;28;20064;-82
2024/03/31 00:42:38;;;;;;;46.50;11.00;;;;;;;;;;5017215;28;20050;-83
2024/03/31 00:45:05;;;;;;;40.13;9.50;;;;;;;;;;5025502;28;20096;-82
2024/03/31 00:47:31;;;;;;;50.22;9.32;;;;;;;;;;5016964;28;20046;-82
2024/03/31 00:49:57;;;;;;;41.15;9.18;;;;;;;;;;5017328;28;20054;-82
2024/03/31 00:52:23;;;;;;;47.42;9.80;;;;;;;;;;5000606;28;20057;-82
2024/03/31 00:54:50;;;;;;;71.85;14.10;;;;;;;;;;5008756;28;20052;-83
2024/03/31 00:57:16;;;;;;;64.65;15.35;;;;;;;;;;5000588;28;20058;-83
2024/03/31 00:59:42;;;;;;;65.20;15.32;;;;;;;;;;5011981;28;20057;-82
2024/03/31 01:02:11;;;;;;;51.15;13.98;;;;;;;;;;5010519;28;20096;-82
2024/03/31 01:04:37;;;;;;;52.22;13.75;;;;;;;;;;5016406;28;20053;-82
2024/03/31 01:07:03;;;;;;;55.58;13.55;;;;;;;;;;5000527;28;20057;-82
2024/03/31 01:09:30;;;;;;;67.65;14.38;;;;;;;;;;5018000;28;20096;-82
2024/03/31 01:11:56;;;;;;;56.58;12.38;;;;;;;;;;5007038;28;20052;-82
2024/03/31 01:14:22;;;;;;;49.38;12.85;;;;;;;;;;5016432;28;20042;-82
2024/03/31 01:16:49;;;;;;;53.47;11.95;;;;;;;;;;5017054;28;20072;-82
2024/03/31 01:19:15;;;;;;;46.75;9.30;;;;;;;;;;5016637;28;20072;-82
2024/03/31 01:21:42;;;;;;;46.50;9.32;;;;;;;;;;5003179;28;20515;-82
2024/03/31 01:24:08;;;;;;;57.00;9.13;;;;;;;;;;5005532;28;20062;-83
2024/03/31 01:26:36;;;;;;;42.47;9.45;;;;;;;;;;5013319;28;20065;-82
2024/03/31 01:29:02;;;;;;;52.95;10.60;;;;;;;;;;5012766;28;20054;-83
2024/03/31 01:31:28;;;;;;;37.60;9.15;;;;;;;;;;4999898;28;20046;-82
2024/03/31 01:33:55;;;;;;;48.65;9.20;;;;;;;;;;5004831;28;20050;-82
2024/03/31 01:36:21;;;;;;;48.13;8.43;;;;;;;;;;4996941;28;20054;-82
2024/03/31 01:38:47;;;;;;;51.15;9.75;;;;;;;;;;5004385;28;20061;-82
2024/03/31 01:41:13;;;;;;;50.10;9.48;;;;;;;;;;5013710;28;20073;-82
2024/03/31 01:43:41;;;;;;;39.83;8.20;;;;;;;;;;5005282;28;20061;-81
2024/03/31 01:46:08;;;;;;;36.33;7.30;;;;;;;;;;5022163;28;20058;-82
2024/03/31 01:48:35;;;;;;;48.30;7.68;;;;;;;;;;5021770;28;20524;-82
2024/03/31 01:51:01;;;;;;;42.10;9.15;;;;;;;;;;5014600;28;20050;-82
2024/03/31 01:53:27;;;;;;;42.08;9.10;;;;;;;;;;4998062;28;20060;-82
2024/03/31 01:55:53;;;;;;;43.03;7.32;;;;;;;;;;5014848;28;20425;-82
2024/03/31 01:58:19;;;;;;;41.53;8.45;;;;;;;;;;5022598;28;20045;-82
2024/03/31 02:00:46;;;;;;;47.83;8.95;;;;;;;;;;5015187;28;20057;-82
2024/03/31 02:03:12;;;;;;;41.67;8.55;;;;;;;;;;5000574;28;20527;-82
2024/03/31 02:05:38;;;;;;;34.85;8.35;;;;;;;;;;5002892;28;20057;-82
2024/03/31 02:08:04;;;;;;;48.42;7.63;;;;;;;;;;5032341;28;20046;-82
2024/03/31 02:10:31;;;;;;;43.35;7.82;;;;;;;;;;5027673;28;20076;-82
2024/03/31 02:12:57;;;;;;;50.38;8.82;;;;;;;;;;5044540;28;20041;-82
2024/03/31 02:15:23;;;;;;;44.05;8.35;;;;;;;;;;5041659;28;20049;-82
2024/03/31 02:17:49;;;;;;;48.15;8.70;;;;;;;;;;5024103;28;20417;-83
2024/03/31 02:20:16;;;;;;;33.63;7.43;;;;;;;;;;5021736;28;20058;-82
2024/03/31 02:22:42;;;;;;;40.38;8.15;;;;;;;;;;5002541;28;20058;-83
2024/03/31 02:25:08;;;;;;;46.05;8.43;;;;;;;;;;5004582;28;20053;-83
2024/03/31 02:27:35;;;;;;;43.80;7.82;;;;;;;;;;5028398;28;20057;-83
2024/03/31 02:30:01;;;;;;;34.63;7.68;;;;;;;;;;5010180;28;20049;-83
2024/03/31 02:32:27;;;;;;;46.40;8.23;;;;;;;;;;5006313;28;20081;-83
2024/03/31 02:34:53;;;;;;;35.15;7.53;;;;;;;;;;5005328;28;20054;-83
2024/03/31 02:37:19;;;;;;;48.22;8.02;;;;;;;;;;5021205;28;20045;-83
2024/03/31 02:39:46;;;;;;;47.72;8.00;;;;;;;;;;5012503;28;20049;-82
2024/03/31 02:42:12;;;;;;;40.15;8.52;;;;;;;;;;5012070;28;20058;-82
2024/03/31 02:44:38;;;;;;;50.03;7.43;;;;;;;;;;5023063;28;20057;-82
2024/03/31 02:47:05;;;;;;;50.42;8.35;;;;;;;;;;5014842;28;20057;-82
2024/03/31 02:49:31;;;;;;;49.15;8.18;;;;;;;;;;5016111;28;20057;-83
2024/03/31 02:51:57;;;;;;;43.22;7.93;;;;;;;;;;5012360;28;20061;-82
2024/03/31 02:54:23;;;;;;;33.20;7.07;;;;;;;;;;5030190;28;20041;-82
2024/03/31 02:56:50;;;;;;;38.40;7.45;;;;;;;;;;5014325;28;20061;-82
2024/03/31 02:59:16;;;;;;;38.15;7.95;;;;;;;;;;5005840;28;20053;-82
2024/03/31 03:01:42;;;;;;;42.33;8.95;;;;;;;;;;5024900;28;20050;-83
2024/03/31 03:04:08;;;;;;;49.67;8.70;;;;;;;;;;5031455;28;20425;-83
2024/03/31 03:06:34;;;;;;;35.72;6.97;;;;;;;;;;5010087;28;20054;-82
2024/03/31 03:09:03;;;;;;;43.70;7.93;;;;;;;;;;5010722;28;20053;-82
2024/03/31 03:11:29;;;;;;;29.52;6.38;;;;;;;;;;5025910;28;20053;-82
2024/03/31 03:13:55;;;;;;;43.63;8.63;;;;;;;;;;5020917;28;20058;-82
2024/03/31 03:16:21;;;;;;;44.53;9.00;;;;;;;;;;5020361;28;20120;-82
2024/03/31 03:18:48;;;;;;;52.28;9.35;;;;;;;;;;5009705;28;20053;-82
2024/03/31 03:21:14;;;;;;;35.83;7.57;;;;;;;;;;5029619;28;20053;-82
2024/03/31 03:23:40;;;;;;;42.95;8.07;;;;;;;;;;5015112;28;20539;-83
2024/03/31 03:26:06;;;;;;;40.10;7.45;;;;;;;;;;5012998;28;20058;-82
2024/03/31 03:28:32;;;;;;;50.33;7.47;;;;;;;;;;5032764;28;20054;-83
2024/03/31 03:31:01;;;;;;;34.17;6.60;;;;;;;;;;5006717;28;20050;-82
2024/03/31 03:33:27;;;;;;;37.65;7.43;;;;;;;;;;5014796;28;20401;-82
2024/03/31 03:35:53;;;;;;;43.67;8.05;;;;;;;;;;5011235;28;20052;-82
2024/03/31 03:38:20;;;;;;;36.20;7.78;;;;;;;;;;5034866;28;20060;-83
2024/03/31 03:40:46;;;;;;;36.55;6.50;;;;;;;;;;5010672;28;20458;-83
2024/03/31 03:43:14;;;;;;;34.83;6.80;;;;;;;;;;5035345;28;20054;-83
2024/03/31 03:45:41;;;;;;;31.85;7.15;;;;;;;;;;5024291;28;20050;-83
2024/03/31 03:48:07;;;;;;;42.13;7.80;;;;;;;;;;5024425;28;20420;-83
2024/03/31 03:50:36;;;;;;;41.42;7.35;;;;;;;;;;5015332;28;20061;-82
2024/03/31 03:53:04;;;;;;;45.08;8.55;;;;;;;;;;5015855;28;20489;-83
2024/03/31 03:55:30;;;;;;;40.70;7.28;;;;;;;;;;5025963;28;20100;-83
2024/03/31 03:57:56;;;;;;;36.00;7.70;;;;;;;;;;5031175;28;20050;-83
2024/03/31 04:00:23;;;;;;;36.10;7.88;;;;;;;;;;5024688;28;20058;-83
2024/03/31 04:02:49;;;;;;;47.22;7.25;;;;;;;;;;5031908;28;20057;-82
2024/03/31 04:05:15;;;;;;;30.83;7.57;;;;;;;;;;5007525;28;20049;-83
2024/03/31 04:07:41;;;;;;;42.28;7.97;;;;;;;;;;5015970;28;20065;-83
2024/03/31 04:10:07;;;;;;;35.30;7.50;;;;;;;;;;5016988;28;20061;-83
2024/03/31 04:12:34;;;;;;;36.65;6.72;;;;;;;;;;5005825;28;20046;-82
2024/03/31 04:15:00;;;;;;;36.78;7.00;;;;;;;;;;5023569;28;20050;-82
2024/03/31 04:17:27;;;;;;;38.25;7.28;;;;;;;;;;5002415;28;20064;-82
2024/03/31 04:19:53;;;;;;;44.67;7.38;;;;;;;;;;5007402;28;20054;-82
2024/03/31 04:22:20;;;;;;;29.13;6.60;;;;;;;;;;5025834;28;20058;-82
2024/03/31 04:24:46;;;;;;;37.95;6.50;;;;;;;;;;5018488;28;20406;-82
2024/03/31 04:27:12;;;;;;;42.72;7.75;;;;;;;;;;5001294;28;20054;-82
2024/03/31 04:29:39;;;;;;;43.90;7.80;;;;;;;;;;5017879;28;20520;-82
2024/03/31 04:32:05;;;;;;;42.00;9.45;;;;;;;;;;5009300;28;20068;-82
2024/03/31 04:34:31;;;;;;;43.25;7.90;;;;;;;;;;5028863;28;20056;-82
2024/03/31 04:36:57;;;;;;;32.63;8.65;;;;;;;;;;5024277;28;20046;-83
2024/03/31 04:39:24;;;;;;;37.53;9.02;;;;;;;;;;5007434;28;20057;-82
2024/03/31 04:41:53;;;;;;;43.25;8.75;;;;;;;;;;5031571;28;20057;-82
2024/03/31 04:44:20;;;;;;;40.30;8.32;;;;;;;;;;5013197;28;20501;-82
2024/03/31 04:46:49;;;;;;;38.05;7.72;;;;;;;;;;5008959;28;20061;-81
2024/03/31 04:49:16;;;;;;;40.63;6.72;;;;;;;;;;5001588;28;20058;-82
2024/03/31 04:51:42;;;;;;;37.33;9.48;;;;;;;;;;5013928;28;20108;-81
2024/03/31 04:54:08;;;;;;;39.38;7.85;;;;;;;;;;5031458;28;20053;-83
2024/03/31 04:56:34;;;;;;;46.83;8.10;;;;;;;;;;5015108;28;20054;-83
2024/03/31 04:59:01;;;;;;;36.60;6.55;;;;;;;;;;5030265;28;20054;-83
2024/03/31 05:01:27;;;;;;;38.30;7.00;;;;;;;;;;5005837;28;20057;-82
2024/03/31 05:03:53;;;;;;;41.47;6.75;;;;;;;;;;5025613;28;20093;-82
2024/03/31 05:06:19;;;;;;;28.98;6.82;;;;;;;;;;5024039;28;20531;-82
2024/03/31 05:08:46;;;;;;;46.28;6.72;;;;;;;;;;5028757;28;20053;-82
2024/03/31 05:11:12;;;;;;;38.55;6.53;;;;;;;;;;5020813;28;20042;-82
2024/03/31 05:13:38;;;;;;;39.78;6.88;;;;;;;;;;5028574;28;20527;-82
2024/03/31 05:16:06;;;;;;;31.30;6.07;;;;;;;;;;5010821;28;20049;-82
2024/03/31 05:18:32;;;;;;;33.38;6.43;;;;;;;;;;5011099;28;20057;-82
2024/03/31 05:20:59;;;;;;;36.50;6.68;;;;;;;;;;5019222;28;20413;-82
2024/03/31 05:23:26;;;;;;;38.72;7.45;;;;;;;;;;5002666;28;20067;-82
2024/03/31 05:25:52;;;;;;;36.40;7.50;;;;;;;;;;5002396;28;20064;-82
2024/03/31 05:28:19;;;;;;;34.15;6.97;;;;;;;;;;5026772;28;20049;-82
2024/03/31 05:30:45;;;;;;;31.48;7.20;;;;;;;;;;5002049;28;20402;-82
2024/03/31 05:33:12;;;;;;;51.28;8.25;;;;;;;;;;5017068;28;20053;-82
2024/03/31 05:35:40;;;;;;;47.20;7.35;;;;;;;;;;5020102;28;20058;-82
2024/03/31 05:38:10;;;;;;;43.95;8.68;;;;;;;;;;5029144;28;20060;-82
2024/03/31 05:40:44;;;;;;;36.03;6.80;;;;;;;;;;5020466;28;20061;-82
2024/03/31 05:43:10;;;;;;;36.20;7.35;;;;;;;;;;5021712;28;20088;-82
2024/03/31 05:45:39;;;;;;;45.58;7.38;;;;;;;;;;5016547;28;20057;-82
2024/03/31 05:48:10;;;;;;;47.22;7.80;;;;;;;;;;5023022;28;20049;-82
2024/03/31 05:50:36;;;;;;;37.05;6.03;;;;;;;;;;5025505;28;20058;-82
2024/03/31 05:53:03;;;;;;;42.33;6.25;;;;;;;;;;5017076;28;20504;-81
2024/03/31 05:55:29;;;;;;;34.47;6.18;;;;;;;;;;5015770;28;20045;-82
2024/03/31 05:57:55;;;;;;;36.05;7.00;;;;;;;;;;5021199;28;20123;-82
2024/03/31 06:00:22;;;;;;;40.90;7.15;;;;;;;;;;5019155;28;20080;-82
2024/03/31 06:02:48;;;;;;;34.33;7.57;;;;;;;;;;5015289;28;20061;-81
2024/03/31 06:05:14;;;;;;;36.10;6.78;;;;;;;;;;5016189;28;20054;-82
2024/03/31 06:07:41;;;;;;;31.83;7.25;;;;;;;;;;5008750;28;20066;-82
2024/03/31 06:10:07;;;;;;;38.80;6.45;;;;;;;;;;5030208;28;20416;-83
2024/03/31 06:12:33;;;;;;;34.72;6.70;;;;;;;;;;5029582;28;20045;-83
2024/03/31 06:14:59;;;;;;;44.40;7.63;;;;;;;;;;5029088;28;20113;-83
2024/03/31 06:17:26;;;;;;;37.17;7.30;;;;;;;;;;5002826;28;20050;-82
2024/03/31 06:19:52;;;;;;;24.20;6.13;;;;;;;;;;5023472;28;20397;-82
2024/03/31 06:22:19;;;;;;;35.97;6.70;;;;;;;;;;5015653;28;20053;-82
2024/03/31 06:24:46;;;;;;;36.33;6.68;;;;;;;;;;5020453;28;20057;-82
2024/03/31 06:27:13;;;;;;;33.45;6.45;;;;;;;;;;5012663;28;20050;-82
2024/03/31 06:29:39;;;;;;;34.45;6.40;;;;;;;;;;5004807;28;20053;-82
2024/03/31 06:32:05;;;;;;;37.88;6.53;;;;;;;;;;4996642;28;20050;-82
2024/03/31 06:34:32;;;;;;;42.55;6.40;;;;;;;;;;5003910;28;20054;-82
2024/03/31 06:36:58;;;;;;;39.60;6.75;;;;;;;;;;5012665;28;20508;-82
2024/03/31 06:39:24;;;;;;;45.05;6.68;;;;;;;;;;4996382;28;20072;-82
2024/03/31 06:41:50;;;;;;;41.58;6.70;;;;;;;;;;4997244;28;20062;-82
2024/03/31 06:44:17;;;;;;;33.40;6.07;;;;;;;;;;4997126;28;20057;-82
2024/03/31 06:46:43;;;;;;;36.67;6.88;;;;;;;;;;5000348;28;20424;-82
2024/03/31 06:49:09;;;;;;;29.60;6.75;;;;;;;;;;5024742;28;20060;-82
2024/03/31 06:51:35;;;;;;;50.88;6.35;;;;;;;;;;5016355;28;20050;-83
2024/03/31 06:54:02;;;;;;;38.45;7.60;;;;;;;;;;5002240;28;20073;-82
2024/03/31 06:56:28;;;;;;;43.10;6.70;;;;;;;;;;5007969;28;20050;-82
2024/03/31 06:58:55;;;;;;;35.15;7.47;;;;;;;;;;5039642;28;20050;-83
2024/03/31 07:01:21;;;;;;;32.58;6.38;;;;;;;;;;5012967;28;20057;-83
2024/03/31 07:03:47;;;;;;;39.42;6.10;;;;;;;;;;5022971;28;20061;-83
2024/03/31 07:06:13;;;;;;;31.08;6.10;;;;;;;;;;5019927;28;20049;-83
2024/03/31 07:08:39;;;;;;;42.13;7.25;;;;;;;;;;5008033;28;20064;-83
2024/03/31 07:11:06;;;;;;;33.15;6.47;;;;;;;;;;5013761;28;20058;-84
2024/03/31 07:13:32;;;;;;;37.88;6.78;;;;;;;;;;5021879;28;20050;-84
2024/03/31 07:15:58;;;;;;;35.08;6.97;;;;;;;;;;5010006;28;20045;-84
2024/03/31 07:18:25;;;;;;;52.42;6.97;;;;;;;;;;5023678;28;20046;-81
2024/03/31 07:20:51;;;;;;;36.10;6.65;;;;;;;;;;5011757;28;20050;-82
2024/03/31 07:23:17;;;;;;;35.53;6.88;;;;;;;;;;5012197;28;20053;-81
2024/03/31 07:25:43;;;;;;;40.25;6.22;;;;;;;;;;5020037;28;20057;-81
2024/03/31 07:28:10;;;;;;;44.53;6.53;;;;;;;;;;5026529;28;20066;-84
2024/03/31 07:30:36;;;;;;;38.35;5.90;;;;;;;;;;5023203;28;20530;-83
2024/03/31 07:33:02;;;;;;;49.42;6.63;;;;;;;;;;5006991;28;20108;-83
2024/03/31 07:35:28;;;;;;;34.85;6.25;;;;;;;;;;5015582;28;20516;-82
2024/03/31 07:37:55;;;;;;;37.45;6.72;;;;;;;;;;5029123;28;20064;-81
2024/03/31 07:40:21;;;;;;;35.20;6.03;;;;;;;;;;5030284;28;20050;-81
2024/03/31 07:42:47;;;;;;;37.33;6.47;;;;;;;;;;5036427;28;20061;-82
2024/03/31 07:45:13;;;;;;;46.17;6.68;;;;;;;;;;5029793;28;20543;-82
2024/03/31 07:47:40;;;;;;;31.23;5.57;;;;;;;;;;5016690;28;20061;-81
2024/03/31 07:50:06;;;;;;;36.83;6.38;;;;;;;;;;5016117;28;20066;-84
2024/03/31 07:52:32;;;;;;;38.75;5.88;;;;;;;;;;5016808;28;20046;-83
2024/03/31 07:54:58;;;;;;;38.72;6.88;;;;;;;;;;5005795;28;20516;-81
2024/03/31 07:57:25;;;;;;;50.50;6.78;;;;;;;;;;5014504;28;20049;-82
2024/03/31 07:59:51;;;;;;;44.85;6.60;;;;;;;;;;5006485;28;20496;-81
2024/03/31 08:02:17;;;;;;;45.22;7.68;;;;;;;;;;5023001;28;20050;-82
2024/03/31 08:04:45;;;;;;;41.95;7.60;;;;;;;;;;5006460;28;20069;-82
2024/03/31 08:07:11;;;;;;;33.53;7.40;;;;;;;;;;5007028;28;20062;-82
2024/03/31 08:09:37;;;;;;;40.80;6.65;;;;;;;;;;5000546;28;20064;-82
2024/03/31 08:12:04;;;;;;;48.42;7.15;;;;;;;;;;5004210;28;20117;-81
2024/03/31 08:14:30;;;;;;;57.05;8.07;;;;;;;;;;5006577;28;20054;-83
2024/03/31 08:16:56;;;;;;;43.72;7.45;;;;;;;;;;4998629;28;20046;-82
2024/03/31 08:19:23;;;;;;;46.05;8.57;;;;;;;;;;5009771;28;20049;-82
2024/03/31 08:21:49;;;;;;;42.65;7.78;;;;;;;;;;5010744;28;20050;-82
2024/03/31 08:24:16;;;;;;;42.75;8.07;;;;;;;;;;5009683;28;20428;-83
2024/03/31 08:26:42;;;;;;;56.15;8.40;;;;;;;;;;5013043;28;20500;-82
2024/03/31 08:29:08;;;;;;;42.47;8.63;;;;;;;;;;5013688;28;20068;-82
2024/03/31 08:31:34;;;;;;;52.70;8.77;;;;;;;;;;5011174;28;20143;-82
2024/03/31 08:34:01;;;;;;;45.15;8.63;;;;;;;;;;5009415;28;20413;-83
2024/03/31 08:36:27;;;;;;;46.50;8.15;;;;;;;;;;5026654;28;20050;-82
2024/03/31 08:38:53;;;;;;;43.90;8.45;;;;;;;;;;5008826;28;20054;-82
2024/03/31 08:41:28;;;;;;;43.42;8.23;;;;;;;;;;5024833;28;20053;-83
2024/03/31 08:43:57;;;;;;;40.83;9.00;;;;;;;;;;5000397;28;20467;-82
2024/03/31 08:46:24;;;;;;;46.38;8.82;;;;;;;;;;5022851;28;20053;-83
2024/03/31 08:48:50;;;;;;;52.65;9.98;;;;;;;;;;5018141;28;20504;-82
2024/03/31 08:51:16;;;;;;;58.13;11.30;;;;;;;;;;5025756;28;20077;-82
2024/03/31 08:53:44;;;;;;;48.75;10.73;;;;;;;;;;5013111;28;20408;-82
2024/03/31 08:56:11;;;;;;;61.35;11.38;;;;;;;;;;5012881;28;20056;-83
2024/03/31 08:58:39;;;;;;;54.80;10.77;;;;;;;;;;5014036;28;21114;-83
2024/03/31 09:01:07;;;;;;;50.60;11.07;;;;;;;;;;5010935;28;20058;-83
2024/03/31 09:03:33;;;;;;;58.08;11.50;;;;;;;;;;5011704;28;20112;-82
2024/03/31 09:06:00;;;;;;;53.25;11.30;;;;;;;;;;5013411;28;20049;-82
2024/03/31 09:08:26;;;;;;;61.00;9.93;;;;;;;;;;5005370;28;20057;-82
2024/03/31 09:10:52;;;;;;;55.97;10.75;;;;;;;;;;5013956;28;20057;-82
2024/03/31 09:13:19;;;;;;;62.00;11.88;;;;;;;;;;5013803;28;20060;-82
2024/03/31 09:15:45;;;;;;;60.17;11.13;;;;;;;;;;5026520;28;20589;-82
2024/03/31 09:18:11;;;;;;;52.25;10.90;;;;;;;;;;5012743;28;20483;-84
2024/03/31 09:20:37;;;;;;;61.05;11.32;;;;;;;;;;5015662;28;20080;-83
2024/03/31 09:23:04;;;;;;;59.05;12.10;;;;;;;;;;5032778;28;20052;-83
2024/03/31 09:25:30;;;;;;;46.75;10.13;;;;;;;;;;5029554;28;20049;-82
2024/03/31 09:28:00;;;;;;;51.35;10.40;;;;;;;;;;5027091;28;20475;-83
2024/03/31 09:30:29;;;;;;;44.70;9.05;;;;;;;;;;5009151;28;20054;-82
2024/03/31 09:32:56;;;;;;;66.40;10.02;;;;;;;;;;5009925;28;20740;-82
2024/03/31 09:35:26;;;;;;;41.30;8.98;;;;;;;;;;5009360;28;20133;-82
2024/03/31 09:37:52;;;;;;;53.97;10.30;;;;;;;;;;4998888;28;20104;-82
2024/03/31 09:40:18;;;;;;;59.85;11.77;;;;;;;;;;5007578;28;20459;-82
2024/03/31 09:42:45;;;;;;;44.28;8.90;;;;;;;;;;5011130;28;20107;-82
2024/03/31 09:45:11;;;;;;;58.38;10.55;;;;;;;;;;5027895;28;20053;-84
2024/03/31 09:47:41;;;;;;;54.83;9.85;;;;;;;;;;5021529;28;20050;-82
2024/03/31 09:50:23;;;;;;;62.95;10.13;;;;;;;;;;5024398;28;20500;-83
2024/03/31 09:52:51;;;;;;;60.13;11.02;;;;;;;;;;5014089;28;20056;-83
2024/03/31 09:55:23;;;;;;;53.30;10.10;;;;;;;;;;5013261;28;20057;-82
2024/03/31 09:57:51;;;;;;;57.15;9.98;;;;;;;;;;5019759;28;20041;-82
2024/03/31 10:00:17;;;;;;;55.67;9.70;;;;;;;;;;5011006;28;20472;-82
2024/03/31 10:02:51;;;;;;;56.45;10.32;;;;;;;;;;5019278;28;20234;-83
2024/03/31 10:05:25;;;;;;;56.13;10.05;;;;;;;;;;5027034;28;20054;-83
2024/03/31 10:07:52;;;;;;;65.93;10.23;;;;;;;;;;5010452;28;20115;-82
2024/03/31 10:10:19;;;;;;;57.92;9.38;;;;;;;;;;5011070;28;20062;-82
2024/03/31 10:12:47;;;;;;;48.55;8.90;;;;;;;;;;5027646;28;20064;-82
2024/03/31 10:15:15;;;;;;;60.47;9.40;;;;;;;;;;5026682;28;20049;-81
2024/03/31 10:17:42;;;;;;;63.72;9.95;;;;;;;;;;5029543;28;20136;-82
2024/03/31 10:20:09;;;;;;;54.95;9.85;;;;;;;;;;5031647;28;20393;-82
2024/03/31 10:22:36;;;;;;;90.28;29.65;;;;;;;;;;5012195;28;20049;-83
2024/03/31 10:25:02;;;;;;;52.75;9.55;;;;;;;;;;5010530;28;20104;-82
2024/03/31 10:27:29;;;;;;;71.43;10.02;;;;;;;;;;5010005;28;20060;-83
2024/03/31 10:29:56;;;;;;;49.28;9.90;;;;;;;;;;5027812;28;20524;-82
2024/03/31 10:32:22;;;;;;;58.92;9.65;;;;;;;;;;5011084;28;20061;-82
2024/03/31 10:34:49;;;;;;;49.50;9.18;;;;;;;;;;5013889;28;20053;-82
2024/03/31 10:37:16;;;;;;;67.43;11.32;;;;;;;;;;5023170;28;20049;-83
2024/03/31 10:39:44;;;;;;;55.33;11.32;;;;;;;;;;5025084;28;20154;-82
2024/03/31 10:42:10;;;;;;;61.58;10.25;;;;;;;;;;5003601;28;20054;-82
2024/03/31 10:44:38;;;;;;;55.83;10.50;;;;;;;;;;5011279;28;20057;-83
2024/03/31 10:47:05;;;;;;;53.63;10.45;;;;;;;;;;5003788;28;20054;-83
2024/03/31 10:49:41;;;;;;;64.15;10.32;;;;;;;;;;5028123;28;20507;-83
2024/03/31 10:52:14;;;;;;;58.65;9.68;;;;;;;;;;5035090;28;20049;-83
2024/03/31 10:54:41;;;;;;;54.45;10.02;;;;;;;;;;5037029;28;20060;-83
2024/03/31 10:57:12;;;;;;;59.25;10.57;;;;;;;;;;5026885;28;20065;-83
2024/03/31 10:59:39;;;;;;;61.10;10.32;;;;;;;;;;5019416;28;20068;-82
2024/03/31 11:02:15;;;;;;;66.13;10.13;;;;;;;;;;5008481;28;20064;-82
2024/03/31 11:04:45;;;;;;;67.15;9.85;;;;;;;;;;5021368;28;20065;-82
2024/03/31 11:07:15;;;;;;;54.80;8.90;;;;;;;;;;5023590;28;20054;-81
2024/03/31 11:09:43;;;;;;;50.33;9.85;;;;;;;;;;5009258;28;20057;-82
2024/03/31 11:12:11;;;;;;;56.40;9.70;;;;;;;;;;5009791;28;20397;-82
2024/03/31 11:14:38;;;;;;;59.05;9.57;;;;;;;;;;5008126;28;20057;-82
2024/03/31 11:17:05;;;;;;;47.25;9.27;;;;;;;;;;5007942;28;20050;-82
2024/03/31 11:19:34;;;;;;;48.60;8.73;;;;;;;;;;5017186;28;20053;-82
2024/03/31 11:22:04;;;;;;;56.65;9.55;;;;;;;;;;5009115;28;20058;-82
2024/03/31 11:24:31;;;;;;;48.30;10.07;;;;;;;;;;5010070;28;20519;-82
2024/03/31 11:26:58;;;;;;;62.00;9.27;;;;;;;;;;5024370;28;20053;-81
2024/03/31 11:29:24;;;;;;;51.13;10.60;;;;;;;;;;5015948;28;20053;-82
2024/03/31 11:31:50;;;;;;;50.25;9.43;;;;;;;;;;5015821;28;20459;-82
2024/03/31 11:34:17;;;;;;;63.35;9.52;;;;;;;;;;5008729;28;20049;-82
2024/03/31 11:36:44;;;;;;;53.35;9.00;;;;;;;;;;5025091;28;20046;-82
2024/03/31 11:39:12;;;;;;;46.90;9.13;;;;;;;;;;5010461;28;20061;-82
2024/03/31 11:41:38;;;;;;;53.17;9.38;;;;;;;;;;5009461;28;20057;-82
2024/03/31 11:44:04;;;;;;;45.15;8.80;;;;;;;;;;5018123;28;20061;-82
2024/03/31 11:46:31;;;;;;;67.05;9.80;;;;;;;;;;5028078;28;20061;-82
2024/03/31 11:49:01;;;;;;;56.40;9.32;;;;;;;;;;5025701;28;20054;-82
2024/03/31 11:51:27;;;;;;;55.28;9.18;;;;;;;;;;5009734;28;20056;-82
2024/03/31 11:53:54;;;;;;;47.70;9.57;;;;;;;;;;5009254;28;20061;-82
2024/03/31 11:56:20;;;;;;;68.20;11.25;;;;;;;;;;5027348;28;20057;-81
2024/03/31 11:58:46;;;;;;;51.78;10.07;;;;;;;;;;5004560;28;20180;-81
2024/03/31 12:01:17;;;;;;;58.15;10.00;;;;;;;;;;5012823;28;20073;-82
2024/03/31 12:03:43;;;;;;;44.13;9.63;;;;;;;;;;5003582;28;20504;-82
2024/03/31 12:06:11;;;;;;;46.13;8.23;;;;;;;;;;5005885;28;20123;-81
2024/03/31 12:08:38;;;;;;;60.00;10.30;;;;;;;;;;5022198;28;20060;-82
2024/03/31 12:11:05;;;;;;;56.25;9.52;;;;;;;;;;5022675;28;20064;-83
2024/03/31 12:13:31;;;;;;;59.47;10.77;;;;;;;;;;5041150;28;20053;-82
2024/03/31 12:15:58;;;;;;;50.58;9.80;;;;;;;;;;5026776;28;20050;-83
2024/03/31 12:18:25;;;;;;;50.38;9.40;;;;;;;;;;5022070;28;20057;-83
2024/03/31 12:20:51;;;;;;;60.13;9.15;;;;;;;;;;5012684;28;20062;-82
2024/03/31 12:23:17;;;;;;;48.00;9.02;;;;;;;;;;5028482;28;20065;-82
2024/03/31 12:25:44;;;;;;;43.97;9.32;;;;;;;;;;5007592;28;20060;-83
2024/03/31 12:28:10;;;;;;;47.97;9.40;;;;;;;;;;5025666;28;20080;-83
2024/03/31 12:30:42;;;;;;;48.45;8.50;;;;;;;;;;5020858;28;20054;-83
2024/03/31 12:33:09;;;;;;;48.92;9.98;;;;;;;;;;5012180;28;20046;-82
2024/03/31 12:35:36;;;;;;;57.40;10.23;;;;;;;;;;5005401;28;20046;-83
2024/03/31 12:38:02;;;;;;;52.15;10.40;;;;;;;;;;5014548;28;20500;-82
2024/03/31 12:40:29;;;;;;;52.65;9.45;;;;;;;;;;5005760;28;20057;-82
2024/03/31 12:42:55;;;;;;;52.15;9.82;;;;;;;;;;5009356;28;20127;-81
2024/03/31 12:45:22;;;;;;;62.80;9.60;;;;;;;;;;4999122;28;20475;-82
2024/03/31 12:47:49;;;;;;;65.57;10.05;;;;;;;;;;5008365;28;20061;-82
2024/03/31 12:50:15;;;;;;;55.80;9.10;;;;;;;;;;5016462;28;20428;-82
2024/03/31 12:52:42;;;;;;;52.95;9.40;;;;;;;;;;5002939;28;20408;-82
2024/03/31 12:55:13;;;;;;;46.85;9.43;;;;;;;;;;5006267;28;20057;-82
2024/03/31 12:57:39;;;;;;;60.75;10.00;;;;;;;;;;5009946;28;20053;-82
2024/03/31 13:00:09;;;;;;;48.53;9.15;;;;;;;;;;5001951;28;20049;-82
2024/03/31 13:02:41;;;;;;;58.05;9.32;;;;;;;;;;5003685;28;20061;-83
2024/03/31 13:05:08;;;;;;;58.50;9.73;;;;;;;;;;5006046;28;20062;-82
2024/03/31 13:07:38;;;;;;;48.35;8.48;;;;;;;;;;5010277;28;20435;-82
2024/03/31 13:10:04;;;;;;;60.03;8.57;;;;;;;;;;5001361;28;20076;-82
2024/03/31 13:12:31;;;;;;;45.88;8.73;;;;;;;;;;5000852;28;20046;-81
2024/03/31 13:14:57;;;;;;;48.58;9.38;;;;;;;;;;5010134;28;20061;-82
2024/03/31 13:17:23;;;;;;;61.53;9.05;;;;;;;;;;5009843;28;20058;-82
2024/03/31 13:19:50;;;;;;;42.08;7.68;;;;;;;;;;5008496;28;20053;-82
2024/03/31 13:22:16;;;;;;;56.08;8.65;;;;;;;;;;5026338;28;20049;-82
2024/03/31 13:24:42;;;;;;;37.08;7.97;;;;;;;;;;5017784;28;20053;-82
2024/03/31 13:27:09;;;;;;;47.08;8.30;;;;;;;;;;5001014;28;20058;-81
2024/03/31 13:29:35;;;;;;;47.13;7.95;;;;;;;;;;5008013;28;20058;-82
2024/03/31 13:32:01;;;;;;;47.08;8.57;;;;;;;;;;5021883;28;20083;-81
2024/03/31 13:34:27;;;;;;;37.85;6.43;;;;;;;;;;5026899;28;20046;-82
2024/03/31 13:36:54;;;;;;;44.92;6.90;;;;;;;;;;5004784;28;20048;-82
2024/03/31 13:39:20;;;;;;;37.45;6.00;;;;;;;;;;5005514;28;20054;-82
2024/03/31 13:41:47;;;;;;;34.00;5.32;;;;;;;;;;5025049;28;20058;-81
2024/03/31 13:44:13;;;;;;;25.52;6.03;;;;;;;;;;5024861;28;20058;-82
2024/03/31 13:46:39;;;;;;;38.45;6.38;;;;;;;;;;5009221;28;20053;-82
2024/03/31 13:49:06;;;;;;;38.88;6.70;;;;;;;;;;5017921;28;20069;-82
2024/03/31 13:51:32;;;;;;;35.90;7.55;;;;;;;;;;5019792;28;20045;-82
2024/03/31 13:53:58;;;;;;;42.78;8.27;;;;;;;;;;5002291;28;20501;-82
2024/03/31 13:56:25;;;;;;;47.78;8.18;;;;;;;;;;5011010;28;20046;-82
2024/03/31 13:58:51;;;;;;;44.47;8.20;;;;;;;;;;5008842;28;20061;-82
2024/03/31 14:01:17;;;;;;;38.78;7.15;;;;;;;;;;5001421;28;20057;-82
2024/03/31 14:03:43;;;;;;;31.77;5.90;;;;;;;;;;5026207;28;20050;-82
2024/03/31 14:06:10;;;;;;;36.47;5.40;;;;;;;;;;5010940;28;20054;-83
2024/03/31 14:08:36;;;;;;;36.15;5.63;;;;;;;;;;5003172;28;20053;-83
2024/03/31 14:11:02;;;;;;;37.58;6.57;;;;;;;;;;5002681;28;20068;-82
2024/03/31 14:13:28;;;;;;;38.70;6.25;;;;;;;;;;5009821;28;20049;-82
2024/03/31 14:15:55;;;;;;;30.00;5.53;;;;;;;;;;5023343;28;20049;-82
2024/03/31 14:18:21;;;;;;;48.60;6.60;;;;;;;;;;5005759;28;20060;-82
2024/03/31 14:20:47;;;;;;;31.38;5.93;;;;;;;;;;5012308;28;20522;-81
2024/03/31 14:23:13;;;;;;;34.08;5.30;;;;;;;;;;5010164;28;20107;-82